| time (UTC) | temp C | wind direction | speed KPH | gust KPH | rain 1hr cm | rain 24hr cm | rain mn cm | humidity % | barometer mb |
| 20260505130223 | 15 | 188 | 3.2 | 11.3 | 0.00 | 0.18 | 0.18 | 96 | 1007.5 |
| 20260505124713 | 14 | 159 | 4.8 | 6.4 | 0.00 | 0.18 | 0.18 | 98 | 1007.6 |
| 20260505124209 | 14 | 162 | 0.0 | 6.4 | 0.00 | 0.18 | 0.18 | 98 | 1007.7 |
| 20260505123706 | 14 | 169 | 1.6 | 8.0 | 0.00 | 0.18 | 0.18 | 98 | 1007.8 |
| 20260505123203 | 14 | 131 | 0.0 | 4.8 | 0.00 | 0.18 | 0.18 | 98 | 1008.0 |
| 20260505122659 | 14 | 106 | 1.6 | 4.8 | 0.00 | 0.18 | 0.18 | 98 | 1007.8 |
| 20260505122156 | 13 | 209 | 6.4 | 9.7 | 0.00 | 0.18 | 0.18 | 99 | 1008.0 |
| 20260505121653 | 13 | 191 | 3.2 | 6.4 | 0.00 | 0.18 | 0.18 | 99 | 1007.9 |
| 20260505121149 | 13 | 180 | 3.2 | 6.4 | 0.00 | 0.18 | 0.18 | 99 | 1007.9 |
| 20260505120646 | 13 | 120 | 3.2 | 4.8 | 0.00 | 0.18 | 0.18 | 99 | 1007.9 |
| 20260505120142 | 13 | 175 | 0.0 | 4.8 | 0.00 | 0.18 | 0.18 | 99 | 1007.8 |
| 20260505115635 | 13 | 172 | 3.2 | 3.2 | 0.00 | 0.18 | 0.18 | 99 | 1008.0 |
| 20260505115133 | 13 | 157 | 0.0 | 3.2 | 0.00 | 0.18 | 0.18 | 99 | 1007.8 |
| 20260505114625 | 13 | 172 | 0.0 | 3.2 | 0.00 | 0.18 | 0.18 | 99 | 1007.9 |
| 20260505114121 | 13 | 98 | 0.0 | 3.2 | 0.00 | 0.18 | 0.18 | 99 | 1007.7 |
| 20260505113617 | 13 | 180 | 1.6 | 3.2 | 0.00 | 0.18 | 0.18 | 99 | 1007.9 |
| 20260505113114 | 13 | 154 | 1.6 | 4.8 | 0.00 | 0.18 | 0.18 | 99 | 1008.1 |
| 20260505112610 | 13 | 151 | 1.6 | 4.8 | 0.00 | 0.18 | 0.18 | 99 | 1008.1 |
| 20260505112108 | 13 | 150 | 4.8 | 4.8 | 0.00 | 0.18 | 0.18 | 99 | 1008.1 |
| 20260505111602 | 13 | 96 | 0.0 | 3.2 | 0.00 | 0.18 | 0.18 | 99 | 1008.0 |
| 20260505111058 | 13 | 160 | 1.6 | 3.2 | 0.00 | 0.18 | 0.18 | 99 | 1008.1 |
| 20260505110555 | 13 | 180 | 4.8 | 4.8 | 0.05 | 0.18 | 0.18 | 99 | 1008.2 |
| 20260505102028 | 13 | 85 | 3.2 | 4.8 | 0.13 | 0.15 | 0.15 | 97 | 1008.4 |
| 20260505101526 | 13 | 66 | 0.0 | 3.2 | 0.13 | 0.15 | 0.15 | 97 | 1008.4 |
| 20260505101022 | 13 | 41 | 3.2 | 4.8 | 0.13 | 0.13 | 0.13 | 96 | 1008.1 |
| 20260505100519 | 13 | 32 | 4.8 | 6.4 | 0.05 | 0.13 | 0.13 | 95 | 1008.5 |
| 20260505100016 | 14 | 29 | 4.8 | 8.0 | 0.18 | 0.10 | 0.10 | 94 | 1008.1 |
| 20260505095512 | 15 | 58 | 4.8 | 6.4 | 0.66 | 0.10 | 0.10 | 92 | 1008.4 |
| 20260505095008 | 15 | 255 | 3.2 | 6.4 | 0.48 | 0.08 | 0.08 | 87 | 1008.4 |
| 20260505094505 | 17 | 357 | 8.0 | 11.3 | 0.00 | 0.00 | 0.00 | 71 | 1008.1 |
| 20260505094001 | 18 | 299 | 4.8 | 6.4 | 0.00 | 0.00 | 0.00 | 66 | 1007.9 |
| 20260505093458 | 17 | 84 | 3.2 | 6.4 | 0.00 | 0.00 | 0.00 | 66 | 1007.8 |
| 20260505092955 | 18 | 49 | 0.0 | 4.8 | 0.00 | 0.00 | 0.00 | 66 | 1007.6 |
| 20260505092453 | 17 | 24 | 3.2 | 3.2 | 0.00 | 0.00 | 0.00 | 66 | 1006.9 |
| 20260505091950 | 18 | 120 | 0.0 | 8.0 | 0.00 | 0.00 | 0.00 | 66 | 1006.8 |
| 20260505091448 | 18 | 258 | 0.0 | 4.8 | 0.00 | 0.00 | 0.00 | 66 | 1006.3 |
| 20260505090946 | 17 | 166 | 0.0 | 8.0 | 0.00 | 0.00 | 0.00 | 65 | 1006.2 |
| 20260505090444 | 17 | 18 | 1.6 | 4.8 | 0.00 | 0.00 | 0.00 | 66 | 1006.2 |
| 20260505085940 | 18 | 151 | 4.8 | 11.3 | 0.00 | 0.00 | 0.00 | 64 | 1006.0 |
| 20260505085438 | 17 | 176 | 3.2 | 8.0 | 0.00 | 0.00 | 0.00 | 65 | 1006.0 |
| 20260505084936 | 17 | 120 | 0.0 | 4.8 | 0.00 | 0.00 | 0.00 | 65 | 1006.1 |
| 20260505084435 | 17 | 180 | 0.0 | 8.0 | 0.00 | 0.00 | 0.00 | 65 | 1005.9 |
| 20260505083932 | 17 | 173 | 0.0 | 9.7 | 0.00 | 0.00 | 0.00 | 65 | 1005.7 |
| 20260505083429 | 18 | 105 | 1.6 | 9.7 | 0.00 | 0.00 | 0.00 | 64 | 1006.0 |
| 20260505082925 | 18 | 197 | 8.0 | 11.3 | 0.00 | 0.00 | 0.00 | 63 | 1005.7 |
| 20260505082421 | 18 | 177 | 3.2 | 16.1 | 0.00 | 0.00 | 0.00 | 64 | 1005.7 |
| 20260505081918 | 18 | 166 | 4.8 | 14.5 | 0.00 | 0.00 | 0.00 | 63 | 1005.6 |
| 20260505081415 | 18 | 225 | 4.8 | 9.7 | 0.00 | 0.00 | 0.00 | 63 | 1005.5 |
| 20260505080912 | 18 | 180 | 0.0 | 6.4 | 0.00 | 0.00 | 0.00 | 65 | 1005.6 |
| 20260505080408 | 18 | 199 | 3.2 | 6.4 | 0.00 | 0.00 | 0.00 | 64 | 1005.5 |
| 20260505075903 | 18 | 192 | 19.3 | 19.3 | 0.00 | 0.00 | 0.00 | 63 | 1005.5 |
| 20260505075400 | 18 | 127 | 6.4 | 9.7 | 0.00 | 0.00 | 0.00 | 63 | 1005.2 |
| 20260505074857 | 18 | 186 | 4.8 | 11.3 | 0.00 | 0.00 | 0.00 | 63 | 1005.5 |
| 20260505074349 | 18 | 209 | 1.6 | 6.4 | 0.00 | 0.00 | 0.00 | 63 | 1005.3 |
| 20260505073846 | 18 | 194 | 4.8 | 11.3 | 0.00 | 0.00 | 0.00 | 62 | 1005.7 |
| 20260505073344 | 18 | 201 | 3.2 | 8.0 | 0.00 | 0.00 | 0.00 | 62 | 1005.5 |
| 20260505072841 | 18 | 180 | 3.2 | 6.4 | 0.00 | 0.00 | 0.00 | 62 | 1005.3 |
| 20260505072337 | 18 | 150 | 6.4 | 11.3 | 0.00 | 0.00 | 0.00 | 63 | 1005.5 |
| 20260505071833 | 18 | 185 | 3.2 | 8.0 | 0.00 | 0.00 | 0.00 | 62 | 1005.2 |
| 20260505071329 | 18 | 198 | 4.8 | 4.8 | 0.00 | 0.00 | 0.00 | 63 | 1005.5 |
| 20260505070828 | 18 | 120 | 3.2 | 6.4 | 0.00 | 0.00 | 0.00 | 62 | 1005.4 |
| 20260505070324 | 18 | 261 | 0.0 | 8.0 | 0.00 | 0.00 | 0.00 | 61 | 1005.6 |
| 20260505065819 | 18 | 174 | 4.8 | 8.0 | 0.00 | 0.00 | 0.00 | 61 | 1005.3 |
| 20260505065316 | 18 | 200 | 1.6 | 6.4 | 0.00 | 0.00 | 0.00 | 62 | 1005.4 |
| 20260505064813 | 18 | 190 | 8.0 | 8.0 | 0.00 | 0.00 | 0.00 | 61 | 1005.3 |
| 20260505064310 | 19 | 193 | 9.7 | 9.7 | 0.00 | 0.00 | 0.00 | 60 | 1005.4 |
| 20260505063809 | 19 | 199 | 3.2 | 17.7 | 0.00 | 0.00 | 0.00 | 60 | 1005.3 |
| 20260505063304 | 19 | 41 | 0.0 | 11.3 | 0.00 | 0.00 | 0.00 | 60 | 1005.5 |
| 20260505062800 | 19 | 184 | 0.0 | 9.7 | 0.00 | 0.00 | 0.00 | 60 | 1005.1 |
| 20260505062258 | 19 | 79 | 3.2 | 14.5 | 0.00 | 0.00 | 0.00 | 60 | 1005.2 |
| 20260505061754 | 19 | 106 | 0.0 | 14.5 | 0.00 | 0.00 | 0.00 | 59 | 1005.0 |
| 20260505061252 | 19 | 213 | 6.4 | 9.7 | 0.00 | 0.00 | 0.00 | 60 | 1005.3 |
| 20260505060749 | 19 | 213 | 6.4 | 16.1 | 0.00 | 0.00 | 0.00 | 59 | 1005.0 |
| 20260505060247 | 19 | 181 | 8.0 | 9.7 | 0.00 | 0.00 | 0.00 | 61 | 1005.1 |
| 20260505055742 | 19 | 221 | 3.2 | 14.5 | 0.00 | 0.00 | 0.00 | 60 | 1005.0 |
| 20260505055238 | 19 | 152 | 9.7 | 20.9 | 0.00 | 0.00 | 0.00 | 60 | 1005.2 |
| 20260505054736 | 19 | 149 | 4.8 | 17.7 | 0.00 | 0.00 | 0.00 | 60 | 1004.9 |
| 20260505054234 | 18 | 188 | 0.0 | 11.3 | 0.00 | 0.00 | 0.00 | 61 | 1005.0 |
| 20260505053732 | 18 | 175 | 4.8 | 19.3 | 0.00 | 0.00 | 0.00 | 61 | 1005.0 |
| 20260505053227 | 18 | 199 | 9.7 | 14.5 | 0.00 | 0.00 | 0.00 | 61 | 1004.9 |
| 20260505052725 | 18 | 194 | 1.6 | 9.7 | 0.00 | 0.00 | 0.00 | 61 | 1004.9 |
| 20260505052222 | 19 | 210 | 3.2 | 14.5 | 0.00 | 0.00 | 0.00 | 61 | 1005.0 |
| 20260505051719 | 19 | 194 | 9.7 | 24.1 | 0.00 | 0.00 | 0.00 | 59 | 1004.9 |
| 20260505051217 | 19 | 180 | 3.2 | 14.5 | 0.00 | 0.00 | 0.00 | 60 | 1004.9 |
| 20260505050715 | 19 | 225 | 3.2 | 6.4 | 0.00 | 0.00 | 0.00 | 61 | 1005.0 |
| 20260505050213 | 19 | 164 | 0.0 | 9.7 | 0.00 | 0.00 | 0.00 | 60 | 1004.9 |
| 20260505041642 | 20 | 220 | 4.8 | 14.5 | 0.00 | 0.00 | 0.00 | 59 | 1005.4 |
| 20260505041135 | 20 | 174 | 4.8 | 11.3 | 0.00 | 0.00 | 0.00 | 60 | 1005.4 |
| 20260505040631 | 19 | 164 | 6.4 | 6.4 | 0.00 | 0.00 | 0.00 | 60 | 1005.4 |
| 20260505040129 | 19 | 215 | 1.6 | 4.8 | 0.00 | 0.00 | 0.00 | 61 | 1005.6 |
| 20260505035625 | 19 | 222 | 4.8 | 8.0 | 0.00 | 0.28 | 0.28 | 60 | 1005.6 |
| 20260505035121 | 20 | 177 | 3.2 | 4.8 | 0.00 | 0.28 | 0.28 | 60 | 1005.4 |
| 20260505034618 | 20 | 188 | 0.0 | 8.0 | 0.00 | 0.28 | 0.28 | 60 | 1005.6 |
| 20260505034115 | 19 | 90 | 0.0 | 4.8 | 0.00 | 0.28 | 0.28 | 62 | 1005.6 |
| 20260505033611 | 19 | 188 | 6.4 | 8.0 | 0.00 | 0.28 | 0.28 | 60 | 1005.4 |
| 20260505033110 | 19 | 90 | 1.6 | 6.4 | 0.00 | 0.28 | 0.28 | 61 | 1005.5 |
| 20260505032607 | 19 | 191 | 3.2 | 4.8 | 0.00 | 0.28 | 0.28 | 62 | 1005.6 |
| 20260505032104 | 19 | 198 | 3.2 | 8.0 | 0.00 | 0.28 | 0.28 | 62 | 1005.3 |
| 20260505031601 | 20 | 109 | 4.8 | 8.0 | 0.00 | 0.28 | 0.28 | 62 | 1005.3 |
| 20260505031057 | 20 | 197 | 3.2 | 8.0 | 0.00 | 0.28 | 0.28 | 61 | 1005.2 |
| 20260505030554 | 19 | 173 | 4.8 | 8.0 | 0.00 | 0.28 | 0.28 | 61 | 1005.1 |
| 20260505030050 | 19 | 166 | 4.8 | 6.4 | 0.00 | 0.28 | 0.28 | 62 | 1005.0 |
| 20260505025546 | 19 | 169 | 3.2 | 9.7 | 0.00 | 0.28 | 0.28 | 62 | 1004.9 |
| 20260505025045 | 19 | 77 | 0.0 | 4.8 | 0.00 | 0.28 | 0.28 | 62 | 1005.0 |
| 20260505024542 | 20 | 103 | 0.0 | 8.0 | 0.00 | 0.28 | 0.28 | 62 | 1005.0 |
| 20260505024039 | 20 | 197 | 6.4 | 6.4 | 0.00 | 0.28 | 0.28 | 63 | 1005.1 |
| 20260505023536 | 19 | 180 | 1.6 | 8.0 | 0.00 | 0.28 | 0.28 | 62 | 1004.9 |
| 20260505023034 | 19 | 158 | 4.8 | 6.4 | 0.00 | 0.28 | 0.28 | 63 | 1004.9 |
| 20260505022531 | 19 | 154 | 0.0 | 8.0 | 0.00 | 0.28 | 0.28 | 63 | 1004.8 |
| 20260505022028 | 19 | 180 | 0.0 | 3.2 | 0.00 | 0.28 | 0.28 | 64 | 1004.6 |
| 20260505021524 | 18 | 172 | 0.0 | 4.8 | 0.00 | 0.28 | 0.28 | 66 | 1004.8 |
| 20260505021021 | 19 | 103 | 0.0 | 3.2 | 0.00 | 0.28 | 0.28 | 64 | 1004.5 |
| 20260505020515 | 19 | 194 | 1.6 | 4.8 | 0.00 | 0.28 | 0.28 | 63 | 1004.3 |
| 20260505020013 | 19 | 173 | 1.6 | 4.8 | 0.00 | 0.28 | 0.28 | 63 | 1004.4 |
| 20260505015510 | 20 | 143 | 3.2 | 3.2 | 0.00 | 0.28 | 0.28 | 62 | 1004.3 |
| 20260505015007 | 20 | 135 | 0.0 | 4.8 | 0.00 | 0.28 | 0.28 | 61 | 1004.2 |
| 20260505014503 | 20 | 165 | 1.6 | 4.8 | 0.00 | 0.28 | 0.28 | 59 | 1003.8 |
| 20260505014001 | 20 | 170 | 3.2 | 4.8 | 0.00 | 0.28 | 0.28 | 58 | 1003.9 |
| 20260505013457 | 21 | 170 | 4.8 | 11.3 | 0.00 | 0.28 | 0.28 | 57 | 1003.8 |
| 20260505012955 | 20 | 182 | 4.8 | 4.8 | 0.00 | 0.28 | 0.28 | 57 | 1003.7 |
| 20260505012453 | 21 | 156 | 3.2 | 6.4 | 0.00 | 0.28 | 0.28 | 56 | 1003.4 |
| 20260505011949 | 20 | 200 | 4.8 | 6.4 | 0.00 | 0.28 | 0.28 | 58 | 1003.7 |
| 20260505011445 | 21 | 174 | 0.0 | 8.0 | 0.00 | 0.28 | 0.28 | 57 | 1003.7 |
| 20260505010942 | 21 | 180 | 0.0 | 11.3 | 0.00 | 0.28 | 0.28 | 57 | 1003.8 |
| 20260505010438 | 21 | 172 | 0.0 | 6.4 | 0.00 | 0.28 | 0.28 | 57 | 1003.7 |
| 20260505005934 | 21 | 150 | 3.2 | 6.4 | 0.00 | 0.28 | 0.28 | 56 | 1003.9 |
| 20260505005431 | 21 | 81 | 0.0 | 6.4 | 0.00 | 0.28 | 0.28 | 55 | 1003.9 |
| 20260505004929 | 21 | 166 | 1.6 | 6.4 | 0.00 | 0.28 | 0.28 | 56 | 1004.0 |
| 20260505004425 | 21 | 180 | 0.0 | 8.0 | 0.00 | 0.28 | 0.28 | 55 | 1003.6 |
| 20260505003922 | 21 | 158 | 8.0 | 9.7 | 0.00 | 0.28 | 0.28 | 54 | 1003.7 |
| 20260505003419 | 21 | 198 | 1.6 | 4.8 | 0.00 | 0.28 | 0.28 | 55 | 1003.8 |
| 20260505002915 | 22 | 180 | 0.0 | 4.8 | 0.00 | 0.28 | 0.28 | 55 | 1003.7 |
| 20260505002412 | 22 | 150 | 3.2 | 6.4 | 0.00 | 0.28 | 0.28 | 54 | 1004.0 |
| 20260505001910 | 22 | 157 | 0.0 | 6.4 | 0.00 | 0.28 | 0.28 | 55 | 1004.1 |
| 20260505001408 | 22 | 182 | 4.8 | 8.0 | 0.00 | 0.28 | 0.28 | 53 | 1004.1 |
| 20260505000905 | 22 | 155 | 4.8 | 4.8 | 0.00 | 0.28 | 0.28 | 55 | 1004.0 |
| 20260505000405 | 22 | 227 | 4.8 | 4.8 | 0.00 | 0.28 | 0.28 | 53 | 1003.9 |
| 20260504235859 | 22 | 156 | 0.0 | 4.8 | 0.00 | 0.28 | 0.28 | 55 | 1004.1 |
| 20260504235356 | 22 | 180 | 3.2 | 4.8 | 0.00 | 0.28 | 0.28 | 55 | 1004.1 |
| 20260504234852 | 22 | 98 | 0.0 | 8.0 | 0.00 | 0.28 | 0.28 | 54 | 1003.9 |
| 20260504234350 | 22 | 180 | 0.0 | 4.8 | 0.00 | 0.28 | 0.28 | 54 | 1004.1 |
| 20260504233846 | 22 | 229 | 3.2 | 6.4 | 0.00 | 0.28 | 0.28 | 53 | 1003.9 |
| 20260504233342 | 22 | 180 | 6.4 | 9.7 | 0.00 | 0.28 | 0.28 | 53 | 1004.2 |
| 20260504232839 | 23 | 270 | 3.2 | 9.7 | 0.00 | 0.28 | 0.28 | 51 | 1004.2 |
| 20260504232336 | 23 | 80 | 0.0 | 11.3 | 0.00 | 0.28 | 0.28 | 52 | 1004.2 |
| 20260504231833 | 23 | 185 | 8.0 | 12.9 | 0.00 | 0.28 | 0.28 | 50 | 1004.3 |
| 20260504231329 | 23 | 203 | 0.0 | 9.7 | 0.00 | 0.28 | 0.28 | 50 | 1004.5 |
| 20260504230825 | 23 | 180 | 0.0 | 11.3 | 0.00 | 0.28 | 0.28 | 50 | 1004.4 |
| 20260504230324 | 23 | 115 | 3.2 | 6.4 | 0.00 | 0.28 | 0.28 | 51 | 1004.6 |
| 20260504225822 | 23 | 161 | 3.2 | 8.0 | 0.00 | 0.28 | 0.28 | 50 | 1004.7 |
| 20260504225318 | 24 | 237 | 6.4 | 11.3 | 0.00 | 0.28 | 0.28 | 50 | 1005.0 |
| 20260504224816 | 25 | 154 | 3.2 | 6.4 | 0.00 | 0.28 | 0.28 | 50 | 1004.9 |
| 20260504224313 | 24 | 57 | 0.0 | 4.8 | 0.00 | 0.28 | 0.28 | 50 | 1005.0 |
| 20260504223809 | 24 | 187 | 3.2 | 4.8 | 0.00 | 0.28 | 0.28 | 53 | 1005.2 |
| 20260504223305 | 24 | 212 | 4.8 | 16.1 | 0.00 | 0.28 | 0.28 | 52 | 1005.1 |
| 20260504222802 | 24 | 200 | 1.6 | 9.7 | 0.00 | 0.28 | 0.28 | 53 | 1005.1 |
| 20260504222258 | 24 | 170 | 8.0 | 8.0 | 0.00 | 0.28 | 0.28 | 53 | 1005.2 |
| 20260504221756 | 24 | 212 | 3.2 | 9.7 | 0.00 | 0.28 | 0.28 | 52 | 1005.1 |
| 20260504221253 | 24 | 103 | 1.6 | 9.7 | 0.00 | 0.28 | 0.28 | 52 | 1005.4 |
| 20260504220750 | 25 | 209 | 3.2 | 11.3 | 0.00 | 0.28 | 0.28 | 53 | 1005.2 |
| 20260504220247 | 25 | 185 | 4.8 | 8.0 | 0.00 | 0.28 | 0.28 | 51 | 1005.4 |
| 20260504215744 | 25 | 130 | 4.8 | 9.7 | 0.00 | 0.28 | 0.28 | 52 | 1005.4 |
| 20260504215240 | 24 | 229 | 4.8 | 4.8 | 0.00 | 0.28 | 0.28 | 51 | 1005.4 |
| 20260504214736 | 24 | 108 | 3.2 | 9.7 | 0.00 | 0.28 | 0.28 | 52 | 1005.2 |
| 20260504214233 | 24 | 212 | 6.4 | 8.0 | 0.00 | 0.28 | 0.28 | 52 | 1005.2 |
| 20260504213730 | 24 | 185 | 1.6 | 4.8 | 0.00 | 0.28 | 0.28 | 53 | 1005.5 |
| 20260504213226 | 24 | 152 | 0.0 | 6.4 | 0.00 | 0.28 | 0.28 | 51 | 1005.5 |
| 20260504212723 | 24 | 257 | 0.0 | 6.4 | 0.00 | 0.28 | 0.28 | 51 | 1005.6 |
| 20260504212220 | 24 | 233 | 3.2 | 8.0 | 0.00 | 0.28 | 0.28 | 51 | 1005.6 |
| 20260504211717 | 24 | 253 | 3.2 | 9.7 | 0.00 | 0.28 | 0.28 | 49 | 1005.5 |
| 20260504211213 | 25 | 107 | 6.4 | 14.5 | 0.00 | 0.28 | 0.28 | 49 | 1005.7 |
| 20260504210711 | 25 | 112 | 0.0 | 12.9 | 0.00 | 0.28 | 0.28 | 50 | 1005.7 |
| 20260504210208 | 25 | 114 | 3.2 | 17.7 | 0.00 | 0.28 | 0.28 | 46 | 1005.7 |
| 20260504205705 | 25 | 0 | 0.0 | 6.4 | 0.00 | 0.28 | 0.28 | 49 | 1005.9 |
| 20260504205202 | 24 | 289 | 0.0 | 9.7 | 0.00 | 0.28 | 0.28 | 48 | 1005.9 |
| 20260504204701 | 24 | 142 | 3.2 | 8.0 | 0.00 | 0.28 | 0.28 | 49 | 1005.8 |
| 20260504204159 | 25 | 354 | 4.8 | 8.0 | 0.00 | 0.28 | 0.28 | 49 | 1005.8 |
| 20260504203657 | 25 | 354 | 1.6 | 9.7 | 0.00 | 0.28 | 0.28 | 47 | 1005.9 |
| 20260504203154 | 25 | 150 | 3.2 | 14.5 | 0.00 | 0.28 | 0.28 | 48 | 1005.7 |
| 20260504202649 | 25 | 226 | 8.0 | 20.9 | 0.00 | 0.28 | 0.28 | 46 | 1005.5 |
| 20260504202146 | 25 | 295 | 0.0 | 14.5 | 0.00 | 0.28 | 0.28 | 49 | 1005.7 |
| 20260504201643 | 25 | 195 | 1.6 | 6.4 | 0.00 | 0.28 | 0.28 | 49 | 1005.7 |
| 20260504201141 | 26 | 157 | 0.0 | 3.2 | 0.00 | 0.28 | 0.28 | 52 | 1005.7 |
| 20260504200637 | 25 | 28 | 3.2 | 8.0 | 0.00 | 0.28 | 0.28 | 48 | 1005.8 |
| 20260504200134 | 25 | 285 | 0.0 | 14.5 | 0.00 | 0.28 | 0.28 | 48 | 1005.8 |
| 20260504195630 | 25 | 191 | 4.8 | 17.7 | 0.00 | 0.28 | 0.28 | 49 | 1006.0 |
| 20260504195126 | 26 | 214 | 3.2 | 19.3 | 0.00 | 0.28 | 0.28 | 48 | 1005.9 |
| 20260504194623 | 25 | 188 | 0.0 | 11.3 | 0.00 | 0.28 | 0.28 | 50 | 1006.0 |
| 20260504194119 | 26 | 218 | 3.2 | 4.8 | 0.00 | 0.28 | 0.28 | 49 | 1006.1 |
| 20260504193615 | 26 | 194 | 19.3 | 19.3 | 0.00 | 0.28 | 0.28 | 47 | 1006.2 |
| 20260504193114 | 25 | 90 | 0.0 | 8.0 | 0.00 | 0.28 | 0.28 | 48 | 1006.1 |
| 20260504192612 | 26 | 190 | 4.8 | 14.5 | 0.00 | 0.28 | 0.28 | 50 | 1006.5 |
| 20260504192110 | 26 | 348 | 1.6 | 12.9 | 0.00 | 0.28 | 0.28 | 48 | 1006.3 |
| 20260504191608 | 26 | 112 | 6.4 | 11.3 | 0.00 | 0.28 | 0.28 | 50 | 1006.4 |
| 20260504191104 | 26 | 59 | 3.2 | 4.8 | 0.00 | 0.28 | 0.28 | 51 | 1006.7 |
| 20260504190600 | 25 | 199 | 3.2 | 16.1 | 0.00 | 0.28 | 0.28 | 48 | 1006.8 |
| 20260504190056 | 25 | 264 | 0.0 | 4.8 | 0.00 | 0.28 | 0.28 | 52 | 1006.8 |
| 20260504185554 | 25 | 295 | 3.2 | 8.0 | 0.00 | 0.28 | 0.28 | 50 | 1006.9 |
| 20260504185050 | 25 | 206 | 0.0 | 12.9 | 0.00 | 0.28 | 0.28 | 50 | 1007.1 |
| 20260504184545 | 25 | 276 | 0.0 | 4.8 | 0.00 | 0.28 | 0.28 | 51 | 1006.9 |
| 20260504184041 | 25 | 188 | 4.8 | 14.5 | 0.00 | 0.28 | 0.28 | 50 | 1007.4 |
| 20260504183538 | 25 | 283 | 3.2 | 6.4 | 0.00 | 0.28 | 0.28 | 54 | 1007.3 |
| 20260504183036 | 25 | 350 | 4.8 | 9.7 | 0.00 | 0.28 | 0.28 | 51 | 1007.3 |
| 20260504182533 | 25 | 81 | 6.4 | 6.4 | 0.00 | 0.28 | 0.28 | 55 | 1007.2 |
| 20260504182030 | 25 | 270 | 3.2 | 9.7 | 0.00 | 0.28 | 0.28 | 55 | 1007.0 |
| 20260504181527 | 24 | 62 | 6.4 | 14.5 | 0.00 | 0.28 | 0.28 | 55 | 1006.8 |
| 20260504181026 | 23 | 155 | 4.8 | 12.9 | 0.00 | 0.28 | 0.28 | 57 | 1006.9 |
| 20260504180524 | 24 | 134 | 8.0 | 8.0 | 0.00 | 0.28 | 0.28 | 54 | 1007.0 |
| 20260504180023 | 25 | 270 | 1.6 | 14.5 | 0.00 | 0.28 | 0.28 | 52 | 1006.9 |
| 20260504175519 | 24 | 198 | 6.4 | 11.3 | 0.00 | 0.28 | 0.28 | 56 | 1006.7 |
| 20260504175016 | 23 | 22 | 4.8 | 9.7 | 0.00 | 0.28 | 0.28 | 56 | 1006.8 |
| 20260504174514 | 23 | 197 | 4.8 | 11.3 | 0.00 | 0.28 | 0.28 | 55 | 1006.8 |
| 20260504174011 | 24 | 193 | 4.8 | 14.5 | 0.00 | 0.28 | 0.28 | 55 | 1007.1 |
| 20260504173508 | 23 | 180 | 3.2 | 14.5 | 0.00 | 0.28 | 0.28 | 55 | 1006.9 |
| 20260504173005 | 23 | 203 | 0.0 | 11.3 | 0.00 | 0.28 | 0.28 | 55 | 1006.9 |
| 20260504172501 | 24 | 74 | 1.6 | 4.8 | 0.00 | 0.28 | 0.28 | 56 | 1007.0 |
| 20260504171957 | 23 | 225 | 0.0 | 6.4 | 0.00 | 0.28 | 0.28 | 59 | 1006.8 |
| 20260504171455 | 23 | 172 | 6.4 | 9.7 | 0.00 | 0.28 | 0.28 | 57 | 1007.3 |
| 20260504170951 | 23 | 187 | 8.0 | 9.7 | 0.00 | 0.28 | 0.28 | 57 | 1007.4 |
| 20260504170447 | 22 | 306 | 0.0 | 8.0 | 0.00 | 0.28 | 0.28 | 58 | 1007.2 |
| 20260504160408 | 20 | 157 | 1.6 | 6.4 | 0.00 | 0.28 | 0.28 | 69 | 1007.9 |
| 20260504150832 | 17 | 195 | 6.4 | 22.5 | 0.00 | 0.28 | 0.28 | 72 | 1008.1 |
| 20260504150328 | 17 | 162 | 9.7 | 14.5 | 0.00 | 0.28 | 0.28 | 71 | 1008.1 |
| 20260504141258 | 15 | 180 | 12.9 | 20.9 | 0.00 | 0.28 | 0.28 | 80 | 1008.3 |
| 20260504140755 | 15 | 34 | 3.2 | 8.0 | 0.00 | 0.28 | 0.28 | 84 | 1008.1 |
| 20260504140250 | 14 | 81 | 0.0 | 12.9 | 0.00 | 0.28 | 0.28 | 86 | 1008.0 |